RUK627N EGPH-EGSS
Flight info
| Callsign | RUK627N |
|---|---|
| Flight time | 0h 55m |
| Altitude | 33000 |
| Route | GOSAM P600 FENIK L612 NAVSO DCT AKOMU DCT VAMEB UL612 LISTO |
| Aircraft | B738/M-SDE2E3FGHIRWXY/LB1 |
Departure
| Time | 2026-04-26 11:30 |
|---|---|
| Airport | Edinburgh Airport (EGPH) |
Arrival
| Time | 2026-04-26 12:25 |
|---|---|
| Airport | London Stansted Airport (EGSS) |
| Time | Latitude | Longitude | Altitude | Speed | Heading |
|---|---|---|---|---|---|
| 2026-04-26 11:02 | 55.94752 | -3.35486 | 115 ft | 0 kts | 208° |
| 2026-04-26 11:24 | 55.94754 | -3.35485 | 113 ft | 2 kts | 208° |
| 2026-04-26 11:24 | 55.94773 | -3.35467 | 111 ft | 3 kts | 209° |
| 2026-04-26 11:24 | 55.94789 | -3.35438 | 112 ft | 4 kts | 255° |
| 2026-04-26 11:24 | 55.94789 | -3.35393 | 113 ft | 4 kts | 294° |
| 2026-04-26 11:25 | 55.94787 | -3.35384 | 113 ft | 0 kts | 298° |
| 2026-04-26 11:26 | 55.94794 | -3.35408 | 112 ft | 7 kts | 298° |
| 2026-04-26 11:27 | 55.94829 | -3.35521 | 116 ft | 16 kts | 298° |
| 2026-04-26 11:27 | 55.94897 | -3.35743 | 115 ft | 23 kts | 298° |
| 2026-04-26 11:27 | 55.95021 | -3.35824 | 115 ft | 23 kts | 26° |
| 2026-04-26 11:27 | 55.95118 | -3.35864 | 112 ft | 13 kts | 298° |
| 2026-04-26 11:28 | 55.95214 | -3.35976 | 113 ft | 19 kts | 3° |
| 2026-04-26 11:28 | 55.95296 | -3.35802 | 114 ft | 19 kts | 59° |
| 2026-04-26 11:28 | 55.95367 | -3.35594 | 113 ft | 19 kts | 58° |
| 2026-04-26 11:28 | 55.95443 | -3.35404 | 115 ft | 17 kts | 23° |
| 2026-04-26 11:29 | 55.95529 | -3.35472 | 114 ft | 14 kts | 329° |
| 2026-04-26 11:29 | 55.95552 | -3.35618 | 111 ft | 16 kts | 240° |
| 2026-04-26 11:29 | 55.95426 | -3.35995 | 108 ft | 73 kts | 239° |
| 2026-04-26 11:29 | 55.95021 | -3.37190 | 110 ft | 148 kts | 239° |
| 2026-04-26 11:30 | 55.94442 | -3.38980 | 645 ft | 170 kts | 241° |
| 2026-04-26 11:30 | 55.94053 | -3.40192 | 1396 ft | 170 kts | 238° |
| 2026-04-26 11:30 | 55.93183 | -3.42708 | 2420 ft | 195 kts | 237° |
| 2026-04-26 11:30 | 55.92400 | -3.44904 | 2712 ft | 224 kts | 237° |
| 2026-04-26 11:31 | 55.91544 | -3.47330 | 3199 ft | 241 kts | 238° |
| 2026-04-26 11:31 | 55.90655 | -3.49936 | 3855 ft | 249 kts | 244° |
| 2026-04-26 11:31 | 55.90199 | -3.52928 | 4527 ft | 255 kts | 261° |
| 2026-04-26 11:31 | 55.89919 | -3.56059 | 5354 ft | 258 kts | 261° |
| 2026-04-26 11:32 | 55.89614 | -3.59230 | 6136 ft | 261 kts | 260° |
| 2026-04-26 11:32 | 55.89297 | -3.62442 | 6931 ft | 264 kts | 260° |
| 2026-04-26 11:32 | 55.88970 | -3.65670 | 7749 ft | 265 kts | 257° |
| 2026-04-26 11:32 | 55.88109 | -3.68558 | 8528 ft | 270 kts | 225° |
| 2026-04-26 11:33 | 55.86522 | -3.70302 | 9376 ft | 275 kts | 201° |
| 2026-04-26 11:33 | 55.84629 | -3.71003 | 10219 ft | 281 kts | 189° |
| 2026-04-26 11:33 | 55.82646 | -3.71369 | 10756 ft | 296 kts | 187° |
| 2026-04-26 11:33 | 55.80497 | -3.71700 | 10964 ft | 321 kts | 187° |
| 2026-04-26 11:34 | 55.78224 | -3.72039 | 11504 ft | 332 kts | 187° |
| 2026-04-26 11:34 | 55.75936 | -3.72387 | 12255 ft | 336 kts | 187° |
| 2026-04-26 11:34 | 55.73589 | -3.72756 | 13097 ft | 340 kts | 187° |
| 2026-04-26 11:34 | 55.71218 | -3.73142 | 13917 ft | 345 kts | 187° |
| 2026-04-26 11:35 | 55.68807 | -3.73544 | 14681 ft | 349 kts | 187° |
| 2026-04-26 11:35 | 55.66380 | -3.73951 | 15508 ft | 351 kts | 187° |
| 2026-04-26 11:35 | 55.63938 | -3.74364 | 16343 ft | 354 kts | 187° |
| 2026-04-26 11:35 | 55.62309 | -3.74640 | 16870 ft | 356 kts | 187° |
| 2026-04-26 11:36 | 55.58970 | -3.75210 | 17929 ft | 361 kts | 187° |
| 2026-04-26 11:36 | 55.56455 | -3.75638 | 18678 ft | 365 kts | 187° |
| 2026-04-26 11:36 | 55.53940 | -3.76066 | 19336 ft | 369 kts | 187° |
| 2026-04-26 11:36 | 55.51365 | -3.76503 | 19990 ft | 373 kts | 187° |
| 2026-04-26 11:37 | 55.48766 | -3.76944 | 20647 ft | 377 kts | 187° |
| 2026-04-26 11:37 | 55.46140 | -3.77389 | 21310 ft | 380 kts | 187° |
| 2026-04-26 11:37 | 55.43494 | -3.77837 | 21946 ft | 384 kts | 187° |
| 2026-04-26 11:37 | 55.40821 | -3.78288 | 22572 ft | 388 kts | 187° |
| 2026-04-26 11:38 | 55.38120 | -3.78744 | 23193 ft | 391 kts | 187° |
| 2026-04-26 11:38 | 55.35394 | -3.79203 | 23807 ft | 395 kts | 187° |
| 2026-04-26 11:38 | 55.32675 | -3.79660 | 24309 ft | 398 kts | 187° |
| 2026-04-26 11:38 | 55.29899 | -3.80127 | 24844 ft | 400 kts | 187° |
| 2026-04-26 11:39 | 55.27113 | -3.80594 | 25378 ft | 402 kts | 187° |
| 2026-04-26 11:39 | 55.24304 | -3.80783 | 25862 ft | 407 kts | 178° |
| 2026-04-26 11:39 | 55.21475 | -3.80059 | 26359 ft | 412 kts | 169° |
| 2026-04-26 11:39 | 55.18733 | -3.78509 | 26833 ft | 418 kts | 159° |
| 2026-04-26 11:40 | 55.16088 | -3.76315 | 27294 ft | 422 kts | 156° |
| 2026-04-26 11:40 | 55.13484 | -3.74037 | 27730 ft | 425 kts | 156° |
| 2026-04-26 11:40 | 55.10835 | -3.71689 | 28163 ft | 428 kts | 156° |
| 2026-04-26 11:40 | 55.08161 | -3.69330 | 28609 ft | 431 kts | 156° |
| 2026-04-26 11:41 | 55.05463 | -3.66974 | 29043 ft | 433 kts | 156° |
| 2026-04-26 11:42 | 54.86171 | -3.50505 | 31687 ft | 445 kts | 158° |
| 2026-04-26 11:43 | 54.83389 | -3.48150 | 32171 ft | 443 kts | 158° |
| 2026-04-26 11:43 | 54.80616 | -3.45806 | 32592 ft | 443 kts | 158° |
| 2026-04-26 11:43 | 54.77835 | -3.43460 | 32959 ft | 443 kts | 158° |
| 2026-04-26 11:43 | 54.75052 | -3.41117 | 33350 ft | 443 kts | 158° |
| 2026-04-26 11:44 | 54.72282 | -3.38787 | 33774 ft | 442 kts | 159° |
| 2026-04-26 11:44 | 54.69547 | -3.36490 | 34201 ft | 441 kts | 159° |
| 2026-04-26 11:44 | 54.66785 | -3.34174 | 34519 ft | 441 kts | 159° |
| 2026-04-26 11:44 | 54.64016 | -3.31856 | 34831 ft | 442 kts | 159° |
| 2026-04-26 11:45 | 54.61254 | -3.29547 | 35172 ft | 441 kts | 159° |
| 2026-04-26 11:45 | 54.58488 | -3.27238 | 35497 ft | 440 kts | 159° |
| 2026-04-26 11:45 | 54.55729 | -3.24939 | 35776 ft | 441 kts | 158° |
| 2026-04-26 11:45 | 54.52951 | -3.22628 | 36093 ft | 440 kts | 158° |
| 2026-04-26 11:46 | 54.50194 | -3.20337 | 36382 ft | 440 kts | 158° |
| 2026-04-26 11:46 | 54.47431 | -3.18045 | 36624 ft | 441 kts | 158° |
| 2026-04-26 11:46 | 54.44703 | -3.15785 | 36897 ft | 441 kts | 158° |
| 2026-04-26 11:46 | 54.41930 | -3.13492 | 37136 ft | 441 kts | 158° |
| 2026-04-26 11:47 | 54.39164 | -3.11206 | 37295 ft | 440 kts | 158° |
| 2026-04-26 11:47 | 54.36398 | -3.08925 | 37281 ft | 441 kts | 158° |
| 2026-04-26 11:47 | 54.30867 | -3.04374 | 37294 ft | 440 kts | 158° |
| 2026-04-26 11:48 | 54.25350 | -2.99846 | 37298 ft | 439 kts | 158° |
| 2026-04-26 11:48 | 54.19870 | -2.95362 | 37293 ft | 438 kts | 158° |
| 2026-04-26 11:49 | 54.14341 | -2.90964 | 37292 ft | 437 kts | 161° |
| 2026-04-26 11:49 | 54.08735 | -2.86968 | 37311 ft | 438 kts | 161° |
| 2026-04-26 11:50 | 54.03028 | -2.82888 | 37286 ft | 453 kts | 161° |
| 2026-04-26 11:50 | 53.97162 | -2.78646 | 37288 ft | 460 kts | 161° |
| 2026-04-26 11:51 | 53.91294 | -2.74439 | 37299 ft | 461 kts | 161° |
| 2026-04-26 11:51 | 53.85388 | -2.70177 | 37290 ft | 462 kts | 161° |
| 2026-04-26 11:52 | 53.80436 | -2.66590 | 37281 ft | 461 kts | 161° |
| 2026-04-26 11:52 | 53.74567 | -2.62368 | 37285 ft | 460 kts | 161° |
| 2026-04-26 11:53 | 53.67706 | -2.57468 | 37293 ft | 459 kts | 161° |
| 2026-04-26 11:54 | 53.59851 | -2.51872 | 37308 ft | 459 kts | 161° |
| 2026-04-26 11:54 | 53.53975 | -2.47685 | 37303 ft | 458 kts | 161° |
| 2026-04-26 11:55 | 53.48137 | -2.43536 | 37312 ft | 457 kts | 161° |
| 2026-04-26 11:55 | 53.45220 | -2.41469 | 37089 ft | 451 kts | 161° |
| 2026-04-26 11:55 | 53.42358 | -2.39445 | 36815 ft | 442 kts | 161° |
| 2026-04-26 11:55 | 53.39545 | -2.37461 | 36535 ft | 434 kts | 162° |
| 2026-04-26 11:56 | 53.36771 | -2.35510 | 36281 ft | 430 kts | 162° |
| 2026-04-26 11:56 | 53.34000 | -2.33566 | 36025 ft | 429 kts | 162° |
| 2026-04-26 11:56 | 53.31244 | -2.31634 | 35779 ft | 428 kts | 162° |
| 2026-04-26 11:56 | 53.28494 | -2.29707 | 35530 ft | 427 kts | 162° |
| 2026-04-26 11:57 | 53.25787 | -2.27812 | 35285 ft | 426 kts | 162° |
| 2026-04-26 11:57 | 53.23048 | -2.25909 | 35039 ft | 425 kts | 162° |
| 2026-04-26 11:57 | 53.20313 | -2.24027 | 34796 ft | 424 kts | 162° |
| 2026-04-26 11:57 | 53.17591 | -2.22159 | 34541 ft | 422 kts | 162° |
| 2026-04-26 11:58 | 53.14890 | -2.20294 | 34194 ft | 418 kts | 161° |
| 2026-04-26 11:58 | 53.12370 | -2.17853 | 33779 ft | 420 kts | 149° |
| 2026-04-26 11:58 | 53.10022 | -2.14993 | 33408 ft | 417 kts | 147° |
| 2026-04-26 11:58 | 53.07711 | -2.12083 | 33009 ft | 415 kts | 147° |
| 2026-04-26 11:59 | 53.05450 | -2.09232 | 32664 ft | 411 kts | 147° |
| 2026-04-26 11:59 | 53.03171 | -2.06390 | 32283 ft | 408 kts | 147° |
| 2026-04-26 11:59 | 53.00899 | -2.03589 | 31915 ft | 405 kts | 148° |
| 2026-04-26 11:59 | 52.98640 | -2.00831 | 31559 ft | 402 kts | 148° |
| 2026-04-26 12:00 | 52.96395 | -1.98104 | 31207 ft | 399 kts | 148° |
| 2026-04-26 12:00 | 52.94160 | -1.95400 | 30851 ft | 396 kts | 148° |
| 2026-04-26 12:00 | 52.91938 | -1.92716 | 30503 ft | 394 kts | 148° |
| 2026-04-26 12:00 | 52.89729 | -1.90051 | 30112 ft | 391 kts | 148° |
| 2026-04-26 12:01 | 52.87534 | -1.87406 | 29724 ft | 388 kts | 148° |
| 2026-04-26 12:01 | 52.85363 | -1.84791 | 29380 ft | 384 kts | 148° |
| 2026-04-26 12:01 | 52.83207 | -1.82198 | 28998 ft | 380 kts | 148° |
| 2026-04-26 12:01 | 52.81040 | -1.79753 | 28671 ft | 374 kts | 153° |
| 2026-04-26 12:02 | 52.78805 | -1.77596 | 28330 ft | 370 kts | 155° |
| 2026-04-26 12:02 | 52.76561 | -1.75541 | 27950 ft | 366 kts | 155° |
| 2026-04-26 12:02 | 52.74337 | -1.73530 | 27597 ft | 364 kts | 155° |
| 2026-04-26 12:02 | 52.72125 | -1.71522 | 27229 ft | 361 kts | 155° |
| 2026-04-26 12:03 | 52.69963 | -1.69547 | 26879 ft | 359 kts | 155° |
| 2026-04-26 12:03 | 52.67790 | -1.67551 | 26530 ft | 357 kts | 154° |
| 2026-04-26 12:03 | 52.65625 | -1.65554 | 26182 ft | 355 kts | 154° |
| 2026-04-26 12:03 | 52.63471 | -1.63563 | 25836 ft | 353 kts | 154° |
| 2026-04-26 12:04 | 52.61334 | -1.61586 | 25504 ft | 351 kts | 154° |
| 2026-04-26 12:04 | 52.59205 | -1.59618 | 25171 ft | 349 kts | 154° |
| 2026-04-26 12:04 | 52.57089 | -1.57663 | 24830 ft | 348 kts | 154° |
| 2026-04-26 12:04 | 52.55012 | -1.55745 | 24501 ft | 346 kts | 154° |
| 2026-04-26 12:05 | 52.52908 | -1.53805 | 24173 ft | 345 kts | 153° |
| 2026-04-26 12:05 | 52.50814 | -1.51876 | 23864 ft | 344 kts | 153° |
| 2026-04-26 12:05 | 52.48730 | -1.49958 | 23465 ft | 343 kts | 153° |
| 2026-04-26 12:05 | 52.46653 | -1.48048 | 23102 ft | 341 kts | 153° |
| 2026-04-26 12:06 | 52.44588 | -1.46152 | 22748 ft | 339 kts | 153° |
| 2026-04-26 12:06 | 52.42562 | -1.44292 | 22420 ft | 336 kts | 153° |
| 2026-04-26 12:06 | 52.40518 | -1.42419 | 22089 ft | 334 kts | 153° |
| 2026-04-26 12:06 | 52.38496 | -1.40568 | 21769 ft | 333 kts | 153° |
| 2026-04-26 12:07 | 52.36479 | -1.38724 | 21451 ft | 331 kts | 153° |
| 2026-04-26 12:07 | 52.34471 | -1.36889 | 21118 ft | 329 kts | 153° |
| 2026-04-26 12:07 | 52.32473 | -1.35066 | 20806 ft | 328 kts | 153° |
| 2026-04-26 12:07 | 52.30507 | -1.33276 | 20486 ft | 327 kts | 153° |
| 2026-04-26 12:08 | 52.28526 | -1.31471 | 20165 ft | 325 kts | 153° |
| 2026-04-26 12:08 | 52.26593 | -1.29556 | 19797 ft | 327 kts | 143° |
| 2026-04-26 12:08 | 52.25068 | -1.26779 | 19374 ft | 332 kts | 123° |
| 2026-04-26 12:08 | 52.24045 | -1.23392 | 19082 ft | 331 kts | 116° |
| 2026-04-26 12:09 | 52.23093 | -1.19997 | 18841 ft | 326 kts | 116° |
| 2026-04-26 12:09 | 52.22152 | -1.16652 | 18413 ft | 322 kts | 116° |
| 2026-04-26 12:09 | 52.21211 | -1.13328 | 17745 ft | 323 kts | 116° |
| 2026-04-26 12:09 | 52.20262 | -1.10011 | 17168 ft | 322 kts | 117° |
| 2026-04-26 12:10 | 52.19318 | -1.06730 | 16671 ft | 319 kts | 117° |
| 2026-04-26 12:10 | 52.18373 | -1.03456 | 16073 ft | 319 kts | 117° |
| 2026-04-26 12:10 | 52.17423 | -1.00183 | 15456 ft | 319 kts | 117° |
| 2026-04-26 12:10 | 52.16470 | -0.96912 | 14914 ft | 318 kts | 117° |
| 2026-04-26 12:11 | 52.15537 | -0.93716 | 14448 ft | 315 kts | 117° |
| 2026-04-26 12:11 | 52.14596 | -0.90494 | 13966 ft | 313 kts | 117° |
| 2026-04-26 12:11 | 52.13665 | -0.87312 | 13439 ft | 310 kts | 117° |
| 2026-04-26 12:11 | 52.12741 | -0.84156 | 12962 ft | 308 kts | 117° |
| 2026-04-26 12:12 | 52.11815 | -0.81003 | 12608 ft | 307 kts | 117° |
| 2026-04-26 12:12 | 52.10905 | -0.77906 | 12281 ft | 306 kts | 117° |
| 2026-04-26 12:12 | 52.09984 | -0.74779 | 11977 ft | 305 kts | 117° |
| 2026-04-26 12:12 | 52.09366 | -0.72682 | 11753 ft | 304 kts | 117° |
| 2026-04-26 12:13 | 52.08161 | -0.68589 | 11344 ft | 301 kts | 116° |
| 2026-04-26 12:13 | 52.07257 | -0.65529 | 11051 ft | 299 kts | 117° |
| 2026-04-26 12:13 | 52.06355 | -0.62481 | 10752 ft | 298 kts | 116° |
| 2026-04-26 12:13 | 52.05457 | -0.59454 | 10478 ft | 297 kts | 117° |
| 2026-04-26 12:14 | 52.04581 | -0.56495 | 10329 ft | 291 kts | 117° |
| 2026-04-26 12:14 | 52.03695 | -0.53509 | 9828 ft | 297 kts | 116° |
| 2026-04-26 12:14 | 52.02793 | -0.50466 | 9454 ft | 298 kts | 117° |
| 2026-04-26 12:14 | 52.01885 | -0.47423 | 9112 ft | 298 kts | 117° |
| 2026-04-26 12:15 | 52.00993 | -0.44431 | 8793 ft | 298 kts | 117° |
| 2026-04-26 12:15 | 52.00089 | -0.41401 | 8482 ft | 297 kts | 116° |
| 2026-04-26 12:15 | 51.99516 | -0.38210 | 8224 ft | 294 kts | 94° |
| 2026-04-26 12:15 | 51.99454 | -0.34922 | 7970 ft | 290 kts | 91° |
| 2026-04-26 12:16 | 51.99430 | -0.31660 | 7688 ft | 288 kts | 91° |
| 2026-04-26 12:16 | 51.99065 | -0.28493 | 7376 ft | 286 kts | 115° |
| 2026-04-26 12:16 | 51.97906 | -0.25957 | 7226 ft | 277 kts | 137° |
| 2026-04-26 12:16 | 51.96469 | -0.23904 | 6950 ft | 274 kts | 140° |
| 2026-04-26 12:17 | 51.95022 | -0.21952 | 6635 ft | 274 kts | 140° |
| 2026-04-26 12:17 | 51.93484 | -0.20156 | 6332 ft | 272 kts | 149° |
| 2026-04-26 12:17 | 51.91857 | -0.18625 | 6051 ft | 269 kts | 150° |
| 2026-04-26 12:17 | 51.90235 | -0.17147 | 5769 ft | 267 kts | 150° |
| 2026-04-26 12:18 | 51.88619 | -0.15687 | 5491 ft | 264 kts | 150° |
| 2026-04-26 12:18 | 51.87019 | -0.14254 | 5237 ft | 262 kts | 150° |
| 2026-04-26 12:18 | 51.85434 | -0.12842 | 4986 ft | 260 kts | 150° |
| 2026-04-26 12:18 | 51.83849 | -0.11432 | 4712 ft | 259 kts | 151° |
| 2026-04-26 12:19 | 51.82269 | -0.10025 | 4482 ft | 260 kts | 151° |
| 2026-04-26 12:19 | 51.80682 | -0.08610 | 4224 ft | 261 kts | 151° |
| 2026-04-26 12:19 | 51.79095 | -0.07192 | 3979 ft | 261 kts | 151° |
| 2026-04-26 12:19 | 51.77502 | -0.05766 | 3760 ft | 261 kts | 150° |
| 2026-04-26 12:20 | 51.75946 | -0.04255 | 3512 ft | 261 kts | 142° |
| 2026-04-26 12:20 | 51.74627 | -0.02348 | 3416 ft | 254 kts | 136° |
| 2026-04-26 12:20 | 51.73560 | -0.00118 | 3201 ft | 252 kts | 111° |
| 2026-04-26 12:20 | 51.73432 | 0.02609 | 3129 ft | 244 kts | 75° |
| 2026-04-26 12:21 | 51.74322 | 0.04842 | 3022 ft | 237 kts | 37° |
| 2026-04-26 12:21 | 51.75774 | 0.05952 | 3008 ft | 225 kts | 23° |
| 2026-04-26 12:21 | 51.77135 | 0.07025 | 2994 ft | 210 kts | 32° |
| 2026-04-26 12:21 | 51.78281 | 0.08324 | 2874 ft | 199 kts | 37° |
| 2026-04-26 12:22 | 51.79353 | 0.09724 | 2645 ft | 197 kts | 42° |
| 2026-04-26 12:22 | 51.80353 | 0.11203 | 2382 ft | 191 kts | 44° |
| 2026-04-26 12:22 | 51.81300 | 0.12634 | 2139 ft | 182 kts | 45° |
| 2026-04-26 12:22 | 51.82205 | 0.14001 | 1911 ft | 175 kts | 45° |
| 2026-04-26 12:23 | 51.83077 | 0.15316 | 1667 ft | 167 kts | 46° |
| 2026-04-26 12:23 | 51.83890 | 0.16539 | 1434 ft | 154 kts | 47° |
| 2026-04-26 12:23 | 51.84659 | 0.17699 | 1212 ft | 149 kts | 46° |
| 2026-04-26 12:23 | 51.85410 | 0.18820 | 1050 ft | 144 kts | 45° |
| 2026-04-26 12:24 | 51.86124 | 0.19909 | 816 ft | 143 kts | 46° |
| 2026-04-26 12:24 | 51.86860 | 0.21012 | 618 ft | 144 kts | 46° |
| 2026-04-26 12:24 | 51.87584 | 0.22104 | 410 ft | 142 kts | 45° |
| 2026-04-26 12:25 | 51.88748 | 0.23857 | 333 ft | 53 kts | 47° |
| 2026-04-26 12:25 | 51.88887 | 0.24269 | 341 ft | 24 kts | 73° |
| 2026-04-26 12:25 | 51.88905 | 0.24518 | 353 ft | 23 kts | 127° |
| 2026-04-26 12:25 | 51.88817 | 0.24713 | 352 ft | 22 kts | 89° |
| 2026-04-26 12:26 | 51.88877 | 0.24828 | 351 ft | 13 kts | 42° |
| 2026-04-26 12:26 | 51.88928 | 0.24907 | 355 ft | 0 kts | 43° |
| 2026-04-26 12:27 | 51.88937 | 0.24920 | 348 ft | 7 kts | 43° |
| 2026-04-26 12:27 | 51.89007 | 0.25025 | 348 ft | 18 kts | 43° |
| 2026-04-26 12:27 | 51.89099 | 0.25163 | 348 ft | 18 kts | 43° |
| 2026-04-26 12:27 | 51.89171 | 0.25314 | 348 ft | 17 kts | 93° |
| 2026-04-26 12:28 | 51.89100 | 0.25462 | 356 ft | 17 kts | 133° |
| 2026-04-26 12:28 | 51.89023 | 0.25596 | 350 ft | 16 kts | 133° |
| 2026-04-26 12:28 | 51.89002 | 0.25656 | 350 ft | 5 kts | 77° |
| 2026-04-26 12:28 | 51.89024 | 0.25694 | 353 ft | 3 kts | 42° |
| 2026-04-26 12:29 | 51.89029 | 0.25701 | 352 ft | 1 kts | 42° |
| 2026-04-26 12:29 | 51.89031 | 0.25704 | 353 ft | 0 kts | 42° |